Time;durP1;ratioP1;P1;durP2;ratioP2;P2;SDS_P1;SDS_P2;PMS_P1;PMS_P2;Temp;Humidity;BMP_temperature;BMP_pressure;BME280_temperature;BME280_humidity;BME280_pressure;Samples;Min_cycle;Max_cycle;Signal;HPM_P1;HPM_P2
2023/05/27 00:01:28;;;;;;;10.20;3.20;;;;;;;8.80;60.55;101358.80;102552;277;94810;-55
2023/05/27 00:04:05;;;;;;;11.00;3.10;;;;;;;8.74;60.70;101361.92;102683;277;96449;-55
2023/05/27 00:06:43;;;;;;;7.40;2.90;;;;;;;8.68;61.00;101365.70;102642;277;120835;-54
2023/05/27 00:09:20;;;;;;;10.00;3.60;;;;;;;8.64;61.28;101364.17;102699;277;105752;-55
2023/05/27 00:12:00;;;;;;;13.90;4.10;;;;;;;8.61;61.32;101368.92;102656;277;113929;-55
2023/05/27 00:14:45;;;;;;;11.00;2.90;;;;;;;8.57;61.46;101371.48;102569;277;94702;-53
2023/05/27 00:17:34;;;;;;;7.80;2.80;;;;;;;8.49;61.68;101371.98;102629;277;97018;-58
2023/05/27 00:20:12;;;;;;;7.20;2.80;;;;;;;8.41;62.00;101373.52;102618;278;118163;-57
2023/05/27 00:22:51;;;;;;;10.60;3.00;;;;;;;8.34;62.11;101373.17;102527;278;106098;-58
2023/05/27 00:25:33;;;;;;;11.80;2.90;;;;;;;8.25;62.36;101370.56;102580;277;113654;-57
2023/05/27 00:28:18;;;;;;;10.30;3.40;;;;;;;8.18;62.63;101370.77;102536;277;93960;-58
2023/05/27 00:31:00;;;;;;;9.20;3.20;;;;;;;8.13;62.80;101377.69;102565;277;97017;-58
2023/05/27 00:33:40;;;;;;;11.20;3.50;;;;;;;8.05;63.07;101377.04;102550;277;120596;-57
2023/05/27 00:36:24;;;;;;;12.70;3.30;;;;;;;7.95;63.22;101371.42;102593;277;104676;-54
2023/05/27 00:39:03;;;;;;;13.60;4.00;;;;;;;7.91;63.42;101371.81;102511;278;114663;-54
2023/05/27 00:41:50;;;;;;;11.40;3.10;;;;;;;7.90;63.68;101371.70;102635;277;94064;-55
2023/05/27 00:44:29;;;;;;;10.50;3.30;;;;;;;7.88;63.89;101368.34;102630;277;98032;-55
2023/05/27 00:47:18;;;;;;;10.50;3.20;;;;;;;7.84;64.16;101366.41;102660;277;120349;-54
2023/05/27 00:50:04;;;;;;;8.00;2.90;;;;;;;7.81;64.34;101364.31;102658;277;105194;-55
2023/05/27 00:52:45;;;;;;;12.60;3.20;;;;;;;7.78;64.55;101367.70;102657;265;114106;-55
2023/05/27 00:55:29;;;;;;;14.30;3.80;;;;;;;7.72;64.50;101367.57;102688;277;95374;-55
2023/05/27 00:58:09;;;;;;;13.40;3.50;;;;;;;7.65;64.80;101369.78;102623;277;98440;-54
2023/05/27 01:00:47;;;;;;;8.00;3.50;;;;;;;7.58;65.05;101367.83;102677;277;119769;-55
2023/05/27 01:03:32;;;;;;;9.90;3.10;;;;;;;7.52;65.30;101369.79;102384;279;105584;-53
2023/05/27 01:06:28;;;;;;;10.50;3.60;;;;;;;7.48;65.55;101369.84;102663;277;113149;-58
2023/05/27 01:09:17;;;;;;;12.00;3.10;;;;;;;7.49;65.75;101364.59;102603;278;95009;-57
2023/05/27 01:12:08;;;;;;;11.80;3.00;;;;;;;7.50;66.02;101366.59;102675;277;97656;-55
2023/05/27 01:14:55;;;;;;;10.30;3.30;;;;;;;7.45;66.27;101370.29;102604;277;120707;-55
2023/05/27 01:17:37;;;;;;;8.50;3.20;;;;;;;7.39;66.28;101371.79;102640;278;105209;-55
2023/05/27 01:20:22;;;;;;;12.20;3.50;;;;;;;7.31;66.67;101370.78;102582;277;113857;-53
2023/05/27 01:23:03;;;;;;;10.40;3.50;;;;;;;7.29;66.78;101370.45;102531;278;96246;-57
2023/05/27 01:25:44;;;;;;;13.80;4.00;;;;;;;7.25;67.07;101371.73;102615;277;97931;-55
2023/05/27 01:28:22;;;;;;;8.30;2.60;;;;;;;7.23;67.18;101374.05;102568;277;119349;-56
2023/05/27 01:31:08;;;;;;;11.50;2.90;;;;;;;7.21;67.27;101375.13;102645;265;105106;-55
2023/05/27 01:33:55;;;;;;;10.40;3.00;;;;;;;7.16;67.32;101375.26;102608;278;113764;-55
2023/05/27 01:36:37;;;;;;;11.30;3.30;;;;;;;7.07;67.59;101375.77;102642;277;95135;-54
2023/05/27 01:39:16;;;;;;;10.30;3.20;;;;;;;6.96;67.88;101377.66;102692;277;98373;-55
2023/05/27 01:41:56;;;;;;;12.90;3.80;;;;;;;6.93;68.18;101377.75;102724;277;120861;-58
2023/05/27 01:44:35;;;;;;;14.00;3.20;;;;;;;6.94;68.25;101384.86;102637;277;103639;-57
2023/05/27 01:47:15;;;;;;;11.30;3.00;;;;;;;6.91;68.62;101380.98;102640;277;113768;-54
2023/05/27 01:49:59;;;;;;;12.00;3.50;;;;;;;6.89;68.56;101385.88;102664;277;97317;-52
2023/05/27 01:52:43;;;;;;;11.00;3.20;;;;;;;6.82;68.77;101384.71;102645;277;98405;-54
2023/05/27 01:55:21;;;;;;;11.30;3.40;;;;;;;6.79;69.08;101383.79;102648;277;120178;-54
2023/05/27 01:58:02;;;;;;;12.60;3.50;;;;;;;6.73;69.27;101385.90;102645;278;105368;-58
2023/05/27 02:00:49;;;;;;;11.20;3.30;;;;;;;6.67;69.48;101389.14;102633;277;113708;-57
2023/05/27 02:03:33;;;;;;;11.90;3.90;;;;;;;6.64;69.63;101389.14;102584;277;97298;-58
2023/05/27 02:06:17;;;;;;;11.10;3.10;;;;;;;6.62;69.76;101391.60;102650;277;97163;-57
2023/05/27 02:08:57;;;;;;;10.70;3.30;;;;;;;6.55;69.88;101394.73;102636;277;119138;-57
2023/05/27 02:11:32;;;;;;;11.50;3.20;;;;;;;6.51;70.02;101391.83;102661;277;105539;-59
2023/05/27 02:14:10;;;;;;;13.10;3.70;;;;;;;6.48;70.25;101393.77;102479;278;113779;-57
2023/05/27 02:17:00;;;;;;;10.80;3.40;;;;;;;6.42;70.48;101395.91;102629;277;94352;-54
2023/05/27 02:19:40;;;;;;;12.40;4.20;;;;;;;6.36;70.53;101396.24;102413;277;101354;-55
2023/05/27 02:22:21;;;;;;;9.10;3.60;;;;;;;6.35;70.80;101395.30;102650;277;121230;-55
2023/05/27 02:24:58;;;;;;;11.90;3.60;;;;;;;6.36;71.09;101396.11;102702;277;105203;-51
2023/05/27 02:27:36;;;;;;;8.80;2.90;;;;;;;6.38;71.20;101398.62;102639;277;114728;-57
2023/05/27 02:30:16;;;;;;;12.30;3.40;;;;;;;6.36;71.49;101404.02;102544;267;95726;-57
2023/05/27 02:32:54;;;;;;;9.90;3.10;;;;;;;6.35;71.48;101405.14;102699;277;96406;-55
2023/05/27 02:35:36;;;;;;;13.20;3.30;;;;;;;6.36;71.50;101407.17;102566;277;120466;-54
2023/05/27 02:38:14;;;;;;;10.90;3.10;;;;;;;6.35;71.61;101407.15;102571;277;104529;-54
2023/05/27 02:40:51;;;;;;;11.50;3.50;;;;;;;6.36;71.75;101405.01;102618;277;113373;-55
2023/05/27 02:43:31;;;;;;;11.70;3.20;;;;;;;6.41;71.78;101404.65;102628;277;94343;-55
2023/05/27 02:46:08;;;;;;;9.30;3.20;;;;;;;6.37;72.02;101407.66;102633;277;97097;-57
2023/05/27 02:48:48;;;;;;;9.80;3.60;;;;;;;6.36;72.07;101415.82;102664;277;120480;-57
2023/05/27 02:51:29;;;;;;;9.40;3.70;;;;;;;6.35;72.31;101413.70;102609;277;105496;-58
2023/05/27 02:54:11;;;;;;;7.90;2.80;;;;;;;6.33;72.41;101419.09;102607;278;115194;-58
2023/05/27 02:56:57;;;;;;;12.70;3.40;;;;;;;6.33;72.51;101417.67;102601;278;97861;-54
2023/05/27 02:59:35;;;;;;;10.30;3.10;;;;;;;6.36;72.71;101414.70;102396;278;96908;-54
2023/05/27 03:02:21;;;;;;;10.10;3.30;;;;;;;6.36;73.05;101415.59;102581;277;119822;-54
2023/05/27 03:05:00;;;;;;;7.90;3.00;;;;;;;6.42;73.03;101420.05;102631;277;105860;-55
2023/05/27 03:07:41;;;;;;;9.20;3.20;;;;;;;6.47;73.12;101419.97;102649;277;113548;-54
2023/05/27 03:10:18;;;;;;;11.90;4.00;;;;;;;6.49;73.36;101422.46;102708;278;94614;-55
2023/05/27 03:12:56;;;;;;;10.90;3.90;;;;;;;6.55;73.33;101423.15;102688;277;96233;-53
2023/05/27 03:15:35;;;;;;;10.50;3.70;;;;;;;6.62;73.45;101424.89;102465;278;122399;-58
2023/05/27 03:18:17;;;;;;;11.80;3.20;;;;;;;6.69;73.53;101423.14;102669;277;105847;-57
2023/05/27 03:20:58;;;;;;;7.60;3.00;;;;;;;6.77;73.63;101421.32;102667;278;113315;-54
2023/05/27 03:23:41;;;;;;;8.90;3.10;;;;;;;6.84;73.71;101422.64;102596;277;96892;-54
2023/05/27 03:26:21;;;;;;;9.90;3.60;;;;;;;6.94;73.77;101418.84;102659;278;97638;-55
2023/05/27 03:29:04;;;;;;;9.10;3.00;;;;;;;7.05;73.75;101426.06;102579;278;120663;-54
2023/05/27 03:31:43;;;;;;;9.70;3.30;;;;;;;7.33;73.62;101422.15;102632;277;105642;-57
2023/05/27 03:34:23;;;;;;;11.90;3.70;;;;;;;8.17;72.97;101416.92;102623;277;113170;-58
2023/05/27 03:37:05;;;;;;;9.70;3.70;;;;;;;9.16;72.08;101420.16;102575;277;94896;-54
2023/05/27 03:39:46;;;;;;;10.50;3.30;;;;;;;10.06;71.06;101414.39;102592;277;97992;-54
2023/05/27 03:42:25;;;;;;;8.90;3.30;;;;;;;10.87;69.88;101421.08;102525;267;120201;-54
2023/05/27 03:45:08;;;;;;;12.10;3.70;;;;;;;11.56;69.03;101419.18;102603;277;104429;-55
2023/05/27 03:47:46;;;;;;;9.20;3.20;;;;;;;12.22;67.96;101417.75;102586;277;113577;-57
2023/05/27 03:50:23;;;;;;;10.10;3.20;;;;;;;12.77;67.15;101421.15;102584;277;93787;-56
2023/05/27 03:53:00;;;;;;;9.60;3.10;;;;;;;13.25;65.92;101422.20;102639;277;97951;-53
2023/05/27 03:55:42;;;;;;;9.50;3.20;;;;;;;13.71;64.86;101423.45;102612;278;120177;-58
2023/05/27 03:58:30;;;;;;;8.80;3.60;;;;;;;14.06;63.44;101418.44;102655;277;106419;-58
2023/05/27 04:01:14;;;;;;;9.80;3.20;;;;;;;14.50;62.71;101429.48;102652;277;113627;-54
2023/05/27 04:03:57;;;;;;;10.30;3.30;;;;;;;14.99;61.59;101432.33;102622;277;94207;-54
2023/05/27 04:06:37;;;;;;;8.00;3.00;;;;;;;15.44;60.42;101435.81;102395;279;97783;-53
2023/05/27 04:09:16;;;;;;;9.10;3.60;;;;;;;15.90;59.32;101441.65;102366;279;121409;-55
2023/05/27 04:11:56;;;;;;;10.00;3.30;;;;;;;16.17;58.37;101437.35;102573;279;103340;-55
2023/05/27 04:14:31;;;;;;;10.10;3.60;;;;;;;16.07;57.26;101440.48;102502;279;114390;-55
2023/05/27 04:17:11;;;;;;;8.70;3.50;;;;;;;15.38;57.12;101446.05;102525;279;93990;-55
2023/05/27 04:19:48;;;;;;;10.30;3.10;;;;;;;14.46;57.56;101448.45;102491;279;98712;-55
2023/05/27 04:22:29;;;;;;;10.70;3.20;;;;;;;13.61;58.22;101454.34;102502;279;118852;-58
2023/05/27 04:25:11;;;;;;;11.70;3.20;;;;;;;12.99;58.88;101455.36;102526;279;105151;-59
2023/05/27 04:27:48;;;;;;;9.10;3.20;;;;;;;12.58;59.60;101457.48;102497;279;115205;-58
2023/05/27 04:30:27;;;;;;;10.00;3.50;;;;;;;12.29;60.17;101461.39;102508;279;93861;-56
2023/05/27 04:33:07;;;;;;;10.10;3.20;;;;;;;12.19;60.69;101468.14;102527;279;98419;-55
2023/05/27 04:35:47;;;;;;;9.10;3.10;;;;;;;12.15;61.16;101467.36;102536;279;120234;-55
2023/05/27 04:38:24;;;;;;;8.80;3.20;;;;;;;12.26;61.34;101466.58;102552;279;106033;-55
2023/05/27 04:41:09;;;;;;;10.00;3.00;;;;;;;12.67;60.95;101464.58;102535;279;114802;-58
2023/05/27 04:43:55;;;;;;;8.00;3.10;;;;;;;12.58;61.13;101466.60;102541;279;93042;-57
2023/05/27 04:46:38;;;;;;;7.10;3.00;;;;;;;12.58;61.37;101464.20;102526;279;97929;-55
2023/05/27 04:49:19;;;;;;;7.10;2.90;;;;;;;12.77;61.59;101459.59;102493;279;121111;-56
2023/05/27 04:52:06;;;;;;;10.00;4.00;;;;;;;13.08;61.30;101462.88;102536;279;104775;-53
2023/05/27 04:54:45;;;;;;;11.50;3.30;;;;;;;13.66;61.15;101457.03;102502;279;114772;-53
2023/05/27 04:57:30;;;;;;;9.10;3.20;;;;;;;15.24;59.66;101458.58;102484;279;95621;-55
2023/05/27 05:00:23;;;;;;;8.80;3.90;;;;;;;16.98;58.02;101454.17;102533;279;97031;-56
2023/05/27 05:03:08;;;;;;;8.50;3.20;;;;;;;18.23;55.72;101452.20;102509;279;119753;-55
2023/05/27 05:05:47;;;;;;;9.60;3.20;;;;;;;19.23;53.83;101455.90;102623;278;105227;-55
2023/05/27 05:08:25;;;;;;;6.90;2.70;;;;;;;19.96;52.18;101458.27;102610;277;114385;-55
2023/05/27 05:11:14;;;;;;;11.20;3.50;;;;;;;20.47;50.42;101453.73;102608;277;94654;-55
2023/05/27 05:13:52;;;;;;;8.70;3.00;;;;;;;21.07;49.28;101455.91;102622;277;98539;-55
2023/05/27 05:16:34;;;;;;;6.70;3.10;;;;;;;21.70;47.65;101450.96;102625;277;120772;-55
2023/05/27 05:19:17;;;;;;;5.80;2.30;;;;;;;21.95;46.71;101451.60;102609;277;104376;-55
2023/05/27 05:22:03;;;;;;;6.80;2.80;;;;;;;22.47;45.18;101444.84;102659;278;113772;-56
2023/05/27 05:24:39;;;;;;;5.30;2.60;;;;;;;22.85;44.34;101442.58;102600;277;95010;-55
2023/05/27 05:27:13;;;;;;;6.50;2.60;;;;;;;23.25;43.25;101442.20;102608;278;97674;-59
2023/05/27 05:29:52;;;;;;;7.30;3.00;;;;;;;23.44;42.49;101446.54;102627;277;119230;-58
2023/05/27 05:32:31;;;;;;;5.40;2.60;;;;;;;24.05;41.76;101444.73;102643;277;103474;-56
2023/05/27 05:35:10;;;;;;;4.80;2.20;;;;;;;24.39;40.67;101451.27;102631;277;115119;-56
2023/05/27 05:37:51;;;;;;;4.70;2.20;;;;;;;24.33;39.92;101452.55;102579;277;93322;-58
2023/05/27 05:40:33;;;;;;;5.10;2.60;;;;;;;24.67;39.33;101445.23;102623;277;97500;-56
2023/05/27 05:43:10;;;;;;;5.40;2.30;;;;;;;24.69;38.69;101449.18;102623;277;119180;-59
2023/05/27 05:45:52;;;;;;;6.30;2.60;;;;;;;24.74;37.44;101449.91;102545;278;106268;-59
2023/05/27 05:48:31;;;;;;;4.20;2.30;;;;;;;24.64;37.06;101449.39;101171;277;2028094;-59
2023/05/27 05:51:09;;;;;;;6.10;2.90;;;;;;;24.86;36.62;101450.58;102561;278;95740;-56
2023/05/27 05:53:47;;;;;;;4.60;1.70;;;;;;;25.30;36.58;101448.37;102614;277;97367;-55
2023/05/27 05:56:24;;;;;;;5.70;1.90;;;;;;;26.00;36.32;101453.02;102605;266;120999;-56
2023/05/27 05:59:01;;;;;;;4.30;2.10;;;;;;;26.44;35.07;101453.98;102636;277;104851;-56
2023/05/27 06:01:41;;;;;;;3.60;1.90;;;;;;;25.99;33.35;101453.23;102645;277;114104;-57
2023/05/27 06:04:25;;;;;;;4.40;1.80;;;;;;;26.04;33.79;101457.73;102374;278;94678;-57
2023/05/27 06:07:03;;;;;;;6.60;1.90;;;;;;;26.35;33.37;101458.42;102674;278;97363;-56
2023/05/27 06:09:45;;;;;;;4.40;1.90;;;;;;;26.73;32.93;101459.36;102625;277;120678;-56
2023/05/27 06:12:25;;;;;;;4.50;2.30;;;;;;;27.17;31.92;101459.70;102626;277;106588;-59
2023/05/27 06:15:05;;;;;;;4.70;2.10;;;;;;;27.31;31.97;101460.85;102610;278;114898;-58
2023/05/27 06:17:47;;;;;;;3.90;1.80;;;;;;;27.29;31.47;101464.39;102643;277;94738;-57
2023/05/27 06:20:27;;;;;;;4.80;1.80;;;;;;;27.57;29.89;101467.02;102654;278;95579;-56
2023/05/27 06:23:15;;;;;;;5.50;1.70;;;;;;;27.64;30.25;101466.91;102667;277;120899;-58
2023/05/27 06:25:51;;;;;;;3.20;1.70;;;;;;;27.83;29.62;101473.98;102603;277;105409;-54
2023/05/27 06:28:27;;;;;;;5.10;2.00;;;;;;;27.90;29.11;101479.69;102511;267;114560;-55
2023/05/27 06:31:05;;;;;;;3.90;1.70;;;;;;;28.35;28.72;101478.95;102487;278;93298;-59
2023/05/27 06:33:42;;;;;;;4.60;1.90;;;;;;;28.27;28.96;101478.14;102377;277;97953;-58
2023/05/27 06:36:19;;;;;;;4.40;2.00;;;;;;;28.40;28.28;101484.56;102594;277;120478;-58
2023/05/27 06:39:00;;;;;;;5.70;2.10;;;;;;;28.31;27.51;101486.19;102583;277;103639;-59
2023/05/27 06:41:43;;;;;;;4.20;1.70;;;;;;;28.11;27.55;101487.05;102615;277;114648;-56
2023/05/27 06:44:17;;;;;;;3.80;2.20;;;;;;;28.39;27.64;101491.85;102351;279;95134;-56
2023/05/27 06:46:56;;;;;;;6.60;2.40;;;;;;;28.83;27.13;101490.48;102649;277;95806;-56
2023/05/27 06:49:35;;;;;;;4.80;1.80;;;;;;;28.98;26.64;101490.46;102626;277;120539;-56
2023/05/27 06:52:09;;;;;;;4.50;1.70;;;;;;;29.50;26.56;101488.75;102611;277;106090;-60
2023/05/27 06:54:49;;;;;;;3.50;1.80;;;;;;;29.15;26.38;101493.55;102625;277;113895;-59
2023/05/27 06:57:26;;;;;;;4.50;1.90;;;;;;;29.23;26.83;101485.45;102666;277;94654;-57
2023/05/27 07:00:10;;;;;;;4.60;1.70;;;;;;;29.40;26.20;101482.57;102591;277;98864;-56
2023/05/27 07:02:54;;;;;;;4.10;1.80;;;;;;;29.21;26.04;101480.62;102651;277;119417;-56
2023/05/27 07:05:30;;;;;;;5.10;1.80;;;;;;;29.40;25.92;101482.95;102681;277;105541;-59
2023/05/27 07:08:12;;;;;;;10.30;2.70;;;;;;;29.60;25.83;101486.77;102700;277;114753;-59
2023/05/27 07:10:50;;;;;;;5.30;1.90;;;;;;;29.91;25.44;101492.02;102679;277;94286;-58
2023/05/27 07:13:34;;;;;;;3.30;1.70;;;;;;;29.98;25.14;101490.06;102661;277;97076;-57
2023/05/27 07:16:13;;;;;;;4.90;1.80;;;;;;;29.96;25.45;101489.32;102668;277;119585;-60
2023/05/27 07:18:55;;;;;;;3.20;1.70;;;;;;;30.29;25.05;101488.40;102601;277;106907;-61
2023/05/27 07:21:36;;;;;;;3.90;1.70;;;;;;;30.53;24.07;101487.05;102556;277;112929;-57
2023/05/27 07:24:19;;;;;;;5.00;1.80;;;;;;;30.21;24.02;101485.85;102570;277;94247;-54
2023/05/27 07:26:55;;;;;;;3.40;1.80;;;;;;;30.37;24.08;101485.48;102659;277;98002;-59
2023/05/27 07:29:40;;;;;;;3.40;1.40;;;;;;;30.63;24.10;101480.20;102567;277;120283;-58
2023/05/27 07:32:25;;;;;;;4.10;1.60;;;;;;;30.66;23.75;101483.78;102626;277;104039;-56
2023/05/27 07:35:05;;;;;;;3.90;1.60;;;;;;;30.71;23.69;101478.46;102582;277;114433;-56
2023/05/27 07:37:40;;;;;;;4.00;1.50;;;;;;;31.03;22.82;101476.19;102426;278;95348;-55
2023/05/27 07:40:27;;;;;;;7.50;1.80;;;;;;;30.93;22.19;101477.59;102659;278;97730;-56
2023/05/27 07:43:12;;;;;;;3.50;1.80;;;;;;;30.66;22.07;101477.88;102628;277;120886;-59
2023/05/27 07:45:54;;;;;;;7.40;1.70;;;;;;;30.56;22.60;101478.42;102716;277;104539;-56
2023/05/27 07:48:40;;;;;;;4.80;1.70;;;;;;;30.73;22.10;101476.22;102674;277;114297;-57
2023/05/27 07:51:21;;;;;;;2.20;1.40;;;;;;;30.54;21.78;101477.22;102597;277;94493;-59
2023/05/27 07:54:10;;;;;;;2.00;1.10;;;;;;;30.19;22.03;101474.79;102619;277;97149;-58
2023/05/27 07:56:51;;;;;;;3.30;1.50;;;;;;;30.18;22.19;101472.16;102624;277;120653;-56
2023/05/27 07:59:33;;;;;;;3.50;1.40;;;;;;;30.43;22.37;101468.13;102626;277;105385;-57
2023/05/27 08:02:11;;;;;;;4.60;1.90;;;;;;;30.35;22.09;101465.54;102580;277;113194;-58
2023/05/27 08:04:47;;;;;;;4.00;1.60;;;;;;;29.93;21.70;101466.83;102622;277;93477;-56
2023/05/27 08:07:21;;;;;;;3.50;1.60;;;;;;;30.24;22.21;101459.78;102622;278;97877;-56
2023/05/27 08:10:00;;;;;;;4.30;1.50;;;;;;;30.84;22.00;101460.80;102412;278;120962;-59
2023/05/27 08:12:44;;;;;;;3.20;1.40;;;;;;;30.81;21.35;101457.13;102584;277;104667;-59
2023/05/27 08:15:34;;;;;;;5.90;2.80;;;;;;;30.74;21.16;101453.66;102597;277;114817;-59
2023/05/27 08:18:23;;;;;;;5.80;1.40;;;;;;;30.57;21.17;101453.59;102616;277;93547;-57
2023/05/27 08:21:11;;;;;;;3.90;1.20;;;;;;;30.01;21.17;101456.99;102418;278;98355;-58
2023/05/27 08:23:52;;;;;;;3.80;1.30;;;;;;;29.67;20.97;101451.91;102674;277;119566;-65
2023/05/27 08:26:37;;;;;;;4.10;1.70;;;;;;;29.55;20.61;101456.19;102658;277;105454;-60
2023/05/27 08:29:16;;;;;;;3.60;1.20;;;;;;;29.12;20.68;101455.45;102561;277;113884;-64
2023/05/27 08:31:54;;;;;;;7.70;2.10;;;;;;;29.05;21.14;101451.02;102621;277;94483;-60
2023/05/27 08:34:38;;;;;;;5.80;1.50;;;;;;;29.26;21.14;101450.42;102625;277;96838;-60
2023/05/27 08:37:16;;;;;;;8.50;1.50;;;;;;;29.60;20.72;101445.18;102656;277;120021;-56
2023/05/27 08:40:00;;;;;;;3.70;1.20;;;;;;;29.42;19.82;101450.79;102636;277;104528;-56
2023/05/27 08:42:44;;;;;;;5.40;1.40;;;;;;;28.55;19.75;101452.99;102619;277;114881;-59
2023/05/27 08:45:26;;;;;;;;;;;;;;;28.22;19.96;101453.58;102661;277;94509;-58
2023/05/27 08:48:09;;;;;;;9.00;4.40;;;;;;;28.35;19.65;101455.66;102397;278;98323;-57
2023/05/27 08:50:49;;;;;;;6.30;1.60;;;;;;;28.53;19.76;101455.00;102665;278;121380;-59
2023/05/27 08:53:27;;;;;;;3.40;1.70;;;;;;;28.60;19.95;101458.00;102625;277;104986;-60
2023/05/27 08:56:10;;;;;;;9.30;1.40;;;;;;;28.34;19.23;101455.83;102638;277;113090;-59
2023/05/27 08:58:45;;;;;;;3.90;1.30;;;;;;;27.59;18.97;101454.63;102610;277;93085;-62
2023/05/27 09:01:23;;;;;;;4.20;1.30;;;;;;;26.58;19.07;101451.17;102639;277;97754;-64
2023/05/27 09:03:58;;;;;;;5.60;2.90;;;;;;;26.05;19.80;101449.71;102622;277;118849;-64
2023/05/27 09:06:40;;;;;;;3.10;1.10;;;;;;;25.87;20.21;101444.88;102699;277;104406;-65
2023/05/27 09:09:30;;;;;;;1.80;1.20;;;;;;;25.09;20.55;101444.00;102548;278;114388;-64
2023/05/27 09:12:08;;;;;;;4.30;1.80;;;;;;;24.82;21.64;101443.76;102635;277;94128;-63
2023/05/27 09:14:50;;;;;;;3.90;1.30;;;;;;;24.69;21.31;101444.20;102681;277;98230;-62
2023/05/27 09:17:31;;;;;;;1.40;0.90;;;;;;;24.37;21.78;101450.30;102615;277;119557;-65
2023/05/27 09:20:08;;;;;;;4.50;1.10;;;;;;;24.37;21.69;101450.23;102634;277;106212;-64
2023/05/27 09:22:48;;;;;;;1.50;1.00;;;;;;;24.00;20.92;101450.94;102587;277;114368;-62
2023/05/27 09:25:27;;;;;;;3.50;1.10;;;;;;;23.63;21.07;101450.80;102619;277;94888;-62
2023/05/27 09:28:08;;;;;;;2.50;1.00;;;;;;;23.40;21.23;101446.70;102615;277;96761;-61
2023/05/27 09:30:48;;;;;;;1.80;0.80;;;;;;;23.21;22.29;101445.83;102596;278;119986;-62
2023/05/27 09:33:26;;;;;;;2.60;0.90;;;;;;;22.95;22.27;101444.20;102614;277;105446;-62
2023/05/27 09:36:08;;;;;;;1.70;1.00;;;;;;;22.87;22.38;101442.80;102592;278;114403;-65
2023/05/27 09:38:48;;;;;;;5.10;1.30;;;;;;;22.83;22.20;101445.09;102597;277;93413;-64
2023/05/27 09:41:27;;;;;;;2.30;1.00;;;;;;;22.69;22.04;101448.18;102619;278;97900;-62
2023/05/27 09:44:08;;;;;;;2.20;1.00;;;;;;;22.54;22.16;101450.21;102621;277;121552;-61
2023/05/27 09:47:03;;;;;;;2.50;1.40;;;;;;;22.57;22.84;101451.55;102641;277;104852;-62
2023/05/27 09:49:51;;;;;;;4.20;1.10;;;;;;;22.42;22.22;101449.30;102622;278;113538;-63
2023/05/27 09:52:28;;;;;;;4.50;1.10;;;;;;;22.53;22.68;101451.33;102698;277;94847;-64
2023/05/27 09:55:11;;;;;;;2.30;1.00;;;;;;;22.42;22.29;101449.85;102706;277;96725;-64
2023/05/27 09:57:47;;;;;;;2.60;1.00;;;;;;;22.37;22.04;101456.44;102642;277;120343;-64
2023/05/27 10:00:28;;;;;;;1.90;1.20;;;;;;;22.51;22.84;101451.91;102699;277;105404;-64
2023/05/27 10:03:10;;;;;;;2.60;1.30;;;;;;;22.58;22.30;101453.79;102589;277;114910;-62
2023/05/27 10:05:50;;;;;;;4.40;1.20;;;;;;;22.29;21.73;101454.55;102623;277;94368;-62
2023/05/27 10:08:27;;;;;;;3.30;1.10;;;;;;;22.02;21.67;101456.02;102644;277;97445;-62
2023/05/27 10:11:06;;;;;;;4.50;1.20;;;;;;;21.95;22.01;101456.29;102654;277;121257;-64
2023/05/27 10:13:49;;;;;;;2.80;1.20;;;;;;;21.98;22.40;101458.73;102675;277;106259;-62
2023/05/27 10:16:33;;;;;;;3.40;1.20;;;;;;;22.02;23.06;101459.49;102607;277;113986;-64
2023/05/27 10:19:15;;;;;;;5.60;1.70;;;;;;;21.92;22.95;101469.20;102614;277;94291;-64
2023/05/27 10:21:49;;;;;;;3.10;1.00;;;;;;;21.99;22.11;101471.84;102628;277;97960;-64
2023/05/27 10:24:36;;;;;;;3.90;1.20;;;;;;;22.04;22.39;101460.31;102647;277;120884;-64
2023/05/27 10:27:17;;;;;;;2.10;1.20;;;;;;;22.02;22.44;101467.03;102634;277;105566;-64
2023/05/27 10:30:01;;;;;;;2.60;1.00;;;;;;;21.99;22.41;101457.27;102566;277;115220;-64
2023/05/27 10:32:51;;;;;;;7.00;1.00;;;;;;;22.09;22.59;101453.16;102599;277;94206;-64
2023/05/27 10:35:45;;;;;;;2.40;1.10;;;;;;;22.16;22.41;101456.23;102652;277;97288;-63
2023/05/27 10:38:21;;;;;;;2.40;0.90;;;;;;;21.80;22.33;101464.05;102637;277;121517;-64
2023/05/27 10:41:08;;;;;;;2.80;1.30;;;;;;;21.50;22.72;101456.88;102656;277;105892;-58
2023/05/27 10:43:57;;;;;;;2.60;1.30;;;;;;;21.58;23.28;101453.62;102408;279;114836;-59
2023/05/27 10:46:44;;;;;;;2.10;1.00;;;;;;;21.64;23.15;101455.98;102611;277;94214;-55
2023/05/27 10:49:35;;;;;;;3.60;1.40;;;;;;;21.40;22.86;101454.48;102618;277;96704;-55
2023/05/27 10:52:20;;;;;;;3.70;1.70;;;;;;;21.33;23.21;101445.71;102636;277;119799;-59
2023/05/27 10:55:01;;;;;;;5.20;1.20;;;;;;;21.43;23.43;101448.90;102623;277;104597;-58
2023/05/27 10:57:47;;;;;;;4.20;1.60;;;;;;;21.26;23.71;101448.48;102660;277;114087;-55
2023/05/27 11:00:31;;;;;;;1.80;1.00;;;;;;;21.28;23.70;101449.85;102612;277;94371;-56
2023/05/27 11:03:22;;;;;;;2.00;1.10;;;;;;;21.13;24.50;101438.58;102613;277;97632;-58
2023/05/27 11:06:08;;;;;;;2.30;1.40;;;;;;;21.09;23.85;101439.55;102624;277;121022;-55
2023/05/27 11:08:49;;;;;;;3.10;2.20;;;;;;;21.17;23.83;101442.57;102655;277;105662;-56
2023/05/27 11:11:27;;;;;;;4.50;2.60;;;;;;;21.14;23.81;101445.87;102618;277;114166;-56
2023/05/27 11:14:02;;;;;;;4.70;1.50;;;;;;;21.16;23.76;101445.08;102630;277;93608;-56
2023/05/27 11:16:47;;;;;;;4.60;1.30;;;;;;;21.13;23.96;101440.00;102663;277;97975;-58
2023/05/27 11:19:33;;;;;;;3.40;1.10;;;;;;;21.10;23.95;101441.11;102682;277;120570;-58
2023/05/27 11:22:20;;;;;;;2.60;1.10;;;;;;;21.07;24.65;101443.84;102619;277;105281;-59
2023/05/27 11:25:09;;;;;;;1.90;0.90;;;;;;;20.91;24.78;101436.86;102679;277;114997;-59
2023/05/27 11:27:49;;;;;;;1.60;0.90;;;;;;;21.03;25.29;101435.31;102643;277;94171;-55
2023/05/27 11:30:30;;;;;;;4.00;1.10;;;;;;;20.97;25.07;101436.34;102698;277;97938;-57
2023/05/27 11:33:09;;;;;;;2.50;1.00;;;;;;;20.95;25.16;101433.14;102627;277;120089;-55
2023/05/27 11:35:47;;;;;;;2.10;1.00;;;;;;;20.83;25.05;101428.14;102626;277;105725;-55
2023/05/27 11:38:24;;;;;;;2.80;1.10;;;;;;;20.88;24.76;101432.09;102570;277;118733;-56
2023/05/27 11:41:09;;;;;;;3.00;1.40;;;;;;;20.82;24.62;101431.36;102625;277;93704;-58
2023/05/27 11:43:56;;;;;;;4.00;1.20;;;;;;;20.71;24.34;101427.89;102614;277;97823;-58
2023/05/27 11:46:39;;;;;;;2.10;1.10;;;;;;;20.68;24.36;101428.75;102616;277;121105;-58
2023/05/27 11:49:20;;;;;;;3.20;1.20;;;;;;;20.61;24.32;101434.46;102600;277;104997;-55
2023/05/27 11:52:01;;;;;;;1.50;0.90;;;;;;;20.45;24.10;101428.78;102598;277;114767;-56
2023/05/27 11:54:41;;;;;;;4.00;1.00;;;;;;;20.46;24.20;101418.12;102392;277;92081;-66
2023/05/27 11:57:22;;;;;;;5.30;1.10;;;;;;;20.54;24.56;101417.19;102672;277;96942;-66
2023/05/27 12:00:01;;;;;;;4.10;1.20;;;;;;;20.56;24.41;101410.15;102673;277;121223;-61
2023/05/27 12:02:37;;;;;;;4.80;1.40;;;;;;;20.61;24.32;101407.25;102692;278;105110;-66
2023/05/27 12:05:19;;;;;;;2.50;1.20;;;;;;;20.60;24.33;101404.39;102645;277;115478;-66
2023/05/27 12:07:58;;;;;;;3.00;1.40;;;;;;;20.52;24.14;101409.83;102457;279;94745;-62
2023/05/27 12:10:50;;;;;;;3.30;1.40;;;;;;;20.32;23.82;101407.52;102643;277;97369;-64
2023/05/27 12:13:37;;;;;;;4.80;2.70;;;;;;;20.14;23.98;101402.21;102598;277;121441;-66
2023/05/27 12:16:14;;;;;;;3.70;1.30;;;;;;;20.14;23.89;101402.13;102621;277;106262;-62
2023/05/27 12:18:54;;;;;;;2.40;1.40;;;;;;;20.12;23.85;101399.73;102375;279;115213;-61
2023/05/27 12:21:39;;;;;;;4.70;1.10;;;;;;;20.05;24.12;101402.98;102601;277;94137;-62
2023/05/27 12:24:24;;;;;;;1.90;1.00;;;;;;;19.86;24.22;101402.46;102606;277;97919;-61
2023/05/27 12:27:06;;;;;;;5.40;1.90;;;;;;;19.85;23.99;101399.64;102547;277;119756;-62